createdAt,value
2017-08-08T00:00:48.882Z,7.00
2017-08-08T00:01:48.884Z,7.40
2017-08-08T00:02:48.883Z,6.00
2017-08-08T00:03:48.883Z,7.70
2017-08-08T00:04:48.886Z,5.50
2017-08-08T00:05:48.885Z,6.50
2017-08-08T00:06:48.892Z,6.20
2017-08-08T00:07:48.896Z,5.60
2017-08-08T00:08:48.895Z,6.10
2017-08-08T00:09:48.897Z,8.10
2017-08-08T00:10:48.897Z,6.40
2017-08-08T00:11:48.903Z,6.00
2017-08-08T00:12:48.902Z,7.90
2017-08-08T00:13:48.904Z,5.70
2017-08-08T00:14:48.901Z,6.40
2017-08-08T00:15:48.903Z,8.60
2017-08-08T00:16:48.906Z,6.70
2017-08-08T00:17:48.904Z,7.50
2017-08-08T00:18:48.907Z,5.80
2017-08-08T00:19:48.910Z,6.30
2017-08-08T00:20:48.910Z,5.10
2017-08-08T00:21:48.913Z,5.40
2017-08-08T00:22:48.919Z,6.80
2017-08-08T00:23:48.918Z,5.50
2017-08-08T00:24:48.922Z,5.50
2017-08-08T00:25:48.922Z,5.70
2017-08-08T00:26:48.926Z,7.50
2017-08-08T00:27:48.924Z,6.70
2017-08-08T00:28:48.929Z,7.00
2017-08-08T00:29:48.927Z,5.80
2017-08-08T00:30:48.924Z,6.10
2017-08-08T00:31:48.929Z,7.20
2017-08-08T00:32:48.929Z,5.60
2017-08-08T00:33:48.931Z,7.10
2017-08-08T00:34:48.933Z,5.80
2017-08-08T00:35:48.933Z,5.20
2017-08-08T00:36:48.937Z,8.20
2017-08-08T00:37:48.935Z,7.90
2017-08-08T00:38:48.941Z,5.80
2017-08-08T00:39:48.946Z,5.00
2017-08-08T00:40:48.945Z,5.90
2017-08-08T00:41:48.948Z,4.90
2017-08-08T00:42:48.948Z,5.20
2017-08-08T00:43:48.951Z,8.90
2017-08-08T00:44:48.952Z,7.00
2017-08-08T00:45:48.954Z,8.50
2017-08-08T00:46:48.951Z,5.60
2017-08-08T00:47:48.951Z,7.40
2017-08-08T00:48:48.955Z,5.50
2017-08-08T00:49:48.954Z,5.30
2017-08-08T00:50:48.956Z,6.20
2017-08-08T00:51:48.960Z,7.20
2017-08-08T00:52:48.959Z,4.70
2017-08-08T00:53:48.961Z,8.20
2017-08-08T00:54:48.969Z,11.70
2017-08-08T00:55:48.969Z,6.70
2017-08-08T00:56:48.971Z,5.30
2017-08-08T00:57:48.970Z,6.70
2017-08-08T00:58:48.976Z,4.20
2017-08-08T00:59:48.973Z,4.20
2017-08-08T01:00:48.977Z,4.70
2017-08-08T01:01:48.976Z,4.70
2017-08-08T01:02:48.974Z,4.10
2017-08-08T01:03:48.977Z,5.30
2017-08-08T01:04:48.978Z,7.80
2017-08-08T01:05:48.980Z,4.60
2017-08-08T01:06:48.984Z,6.10
2017-08-08T01:07:48.987Z,5.90
2017-08-08T01:08:48.987Z,5.40
2017-08-08T01:09:48.990Z,6.50
2017-08-08T01:10:48.988Z,5.80
2017-08-08T01:11:48.992Z,4.80
2017-08-08T01:12:48.991Z,5.80
2017-08-08T01:13:48.990Z,4.60
2017-08-08T01:14:48.993Z,6.40
2017-08-08T01:15:48.993Z,8.30
2017-08-08T01:16:48.997Z,5.70
2017-08-08T01:17:48.998Z,4.90
2017-08-08T01:18:49.001Z,4.30
2017-08-08T01:19:49.009Z,5.70
2017-08-08T01:20:49.006Z,5.60
2017-08-08T01:21:49.008Z,6.80
2017-08-08T01:22:49.010Z,4.50
2017-08-08T01:23:49.009Z,4.70
2017-08-08T01:24:49.013Z,5.40
2017-08-08T01:25:49.012Z,4.10
2017-08-08T01:26:49.009Z,4.40
2017-08-08T01:27:49.013Z,7.70
2017-08-08T01:28:49.012Z,4.20
2017-08-08T01:29:49.016Z,6.40
2017-08-08T01:30:49.016Z,8.60
2017-08-08T01:31:49.018Z,6.80
2017-08-08T01:32:49.019Z,5.30
2017-08-08T01:33:49.022Z,6.00
2017-08-08T01:34:49.027Z,7.50
2017-08-08T01:35:49.027Z,5.50
2017-08-08T01:36:49.030Z,5.00
2017-08-08T01:37:49.029Z,5.70
2017-08-08T01:38:49.031Z,4.10
2017-08-08T01:39:49.036Z,5.20
2017-08-08T01:40:49.034Z,5.80
2017-08-08T01:41:49.036Z,4.20
2017-08-08T01:42:49.034Z,8.20
2017-08-08T01:43:49.034Z,4.70
2017-08-08T01:44:49.039Z,5.20
2017-08-08T01:45:49.036Z,5.70
2017-08-08T01:46:49.040Z,5.70
2017-08-08T01:47:49.039Z,5.20
2017-08-08T01:48:49.044Z,5.00
2017-08-08T01:49:49.042Z,5.10
2017-08-08T01:50:49.048Z,5.00
2017-08-08T01:51:49.051Z,4.60
2017-08-08T01:52:49.052Z,5.40
2017-08-08T01:53:49.055Z,4.50
2017-08-08T01:54:49.056Z,4.00
2017-08-08T01:55:49.055Z,4.40
2017-08-08T01:56:49.060Z,5.30
2017-08-08T01:57:49.058Z,6.30
2017-08-08T01:58:49.055Z,5.20
2017-08-08T01:59:49.059Z,6.10
2017-08-08T02:00:49.059Z,6.00
2017-08-08T02:01:49.062Z,4.10
2017-08-08T02:02:49.061Z,5.00
2017-08-08T02:03:49.065Z,3.80
2017-08-08T02:04:49.064Z,6.90
2017-08-08T02:05:49.067Z,4.40
2017-08-08T02:06:49.073Z,4.80
2017-08-08T02:07:49.373Z,4.30
2017-08-08T02:08:49.076Z,4.50
2017-08-08T02:09:49.075Z,7.20
2017-08-08T02:10:49.073Z,5.20
2017-08-08T02:11:49.077Z,4.90
2017-08-08T02:12:49.076Z,4.10
2017-08-08T02:13:49.078Z,4.10
2017-08-08T02:14:49.084Z,6.30
2017-08-08T02:15:49.085Z,4.10
2017-08-08T02:16:49.087Z,6.00
2017-08-08T02:17:49.085Z,4.10
2017-08-08T02:18:49.089Z,3.90
2017-08-08T02:19:49.089Z,7.10
2017-08-08T02:20:49.093Z,4.10
2017-08-08T02:21:49.092Z,4.80
2017-08-08T02:22:49.088Z,5.20
2017-08-08T02:23:49.092Z,5.00
2017-08-08T02:24:49.092Z,4.90
2017-08-08T02:25:49.095Z,5.40
2017-08-08T02:26:49.097Z,3.60
2017-08-08T02:27:49.095Z,4.10
2017-08-08T02:28:49.099Z,3.40
2017-08-08T02:29:49.098Z,4.30
2017-08-08T02:30:49.103Z,4.40
2017-08-08T02:31:49.107Z,3.60
2017-08-08T02:32:49.106Z,6.00
2017-08-08T02:33:49.109Z,4.30
2017-08-08T02:34:49.110Z,4.70
2017-08-08T02:35:49.113Z,4.30
2017-08-08T02:36:49.112Z,5.00
2017-08-08T02:37:49.115Z,5.10
2017-08-08T02:38:49.112Z,4.10
2017-08-08T02:39:49.112Z,5.20
2017-08-08T02:40:49.120Z,5.10
2017-08-08T02:41:49.113Z,5.90
2017-08-08T02:42:49.114Z,4.60
2017-08-08T02:43:49.118Z,5.40
2017-08-08T02:44:49.123Z,4.90
2017-08-08T02:45:49.121Z,5.70
2017-08-08T02:46:49.126Z,3.50
2017-08-08T02:47:49.128Z,5.80
2017-08-08T02:48:49.135Z,6.10
2017-08-08T02:49:49.127Z,6.40
2017-08-08T02:50:49.131Z,3.70
2017-08-08T02:51:49.131Z,5.80
2017-08-08T02:52:49.134Z,4.20
2017-08-08T02:53:49.133Z,4.30
2017-08-08T02:54:49.132Z,6.30
2017-08-08T02:55:49.133Z,4.90
2017-08-08T02:56:49.132Z,4.00
2017-08-08T02:57:49.135Z,4.10
2017-08-08T02:58:49.137Z,3.70
2017-08-08T02:59:49.136Z,4.80
2017-08-08T03:00:49.140Z,5.30
2017-08-08T03:01:49.138Z,6.30
2017-08-08T03:02:49.145Z,5.60
2017-08-08T03:03:49.148Z,3.70
2017-08-08T03:04:49.148Z,4.90
2017-08-08T03:05:49.150Z,4.90
2017-08-08T03:06:49.149Z,4.60
2017-08-08T03:07:49.152Z,3.80
2017-08-08T03:08:49.158Z,5.40
2017-08-08T03:09:49.154Z,4.20
2017-08-08T03:10:49.152Z,4.20
2017-08-08T03:11:49.151Z,4.80
2017-08-08T03:12:49.155Z,6.10
2017-08-08T03:13:49.153Z,4.80
2017-08-08T03:14:49.159Z,4.20
2017-08-08T03:15:49.162Z,5.90
2017-08-08T03:16:49.162Z,3.80
2017-08-08T03:17:49.164Z,5.10
2017-08-08T03:18:49.161Z,4.40
2017-08-08T03:19:49.161Z,4.20
2017-08-08T03:20:49.165Z,4.30
2017-08-08T03:21:49.162Z,4.00
2017-08-08T03:22:49.166Z,5.10
2017-08-08T03:23:49.166Z,5.30
2017-08-08T03:24:49.169Z,5.30
2017-08-08T03:25:49.167Z,3.80
2017-08-08T03:26:49.173Z,4.10
2017-08-08T03:27:49.176Z,4.10
2017-08-08T03:28:49.176Z,5.40
2017-08-08T03:29:49.179Z,3.80
2017-08-08T03:30:49.181Z,4.50
2017-08-08T03:31:49.180Z,4.80
2017-08-08T03:32:49.183Z,3.70
2017-08-08T03:33:49.182Z,4.60
2017-08-08T03:34:49.179Z,4.20
2017-08-08T03:35:49.182Z,3.90
2017-08-08T03:36:49.181Z,3.50
2017-08-08T03:37:49.187Z,4.80
2017-08-08T03:38:49.184Z,3.80
2017-08-08T03:39:49.187Z,4.10
2017-08-08T03:40:49.187Z,6.20
2017-08-08T03:41:49.188Z,3.80
2017-08-08T03:42:49.197Z,4.00
2017-08-08T03:43:49.194Z,4.10
2017-08-08T03:44:49.195Z,4.60
2017-08-08T03:45:49.199Z,3.80
2017-08-08T03:46:49.198Z,5.20
2017-08-08T03:47:49.201Z,5.20
2017-08-08T03:48:49.200Z,4.70
2017-08-08T03:49:49.202Z,4.60
2017-08-08T03:50:49.201Z,6.00
2017-08-08T03:51:49.199Z,4.30
2017-08-08T03:52:49.204Z,4.50
2017-08-08T03:53:49.202Z,3.50
2017-08-08T03:54:49.206Z,3.70
2017-08-08T03:55:49.206Z,4.30
2017-08-08T03:56:49.209Z,3.30
2017-08-08T03:57:49.207Z,4.00
2017-08-08T03:58:49.212Z,3.80
2017-08-08T03:59:49.223Z,3.60
2017-08-08T04:00:49.214Z,3.80
2017-08-08T04:01:49.219Z,3.40
2017-08-08T04:02:49.218Z,3.70
2017-08-08T04:03:49.217Z,4.00
2017-08-08T04:04:49.221Z,4.30
2017-08-08T04:05:49.219Z,3.50
2017-08-08T04:06:49.218Z,4.80
2017-08-08T04:07:49.221Z,3.50
2017-08-08T04:08:49.222Z,4.30
2017-08-08T04:09:49.222Z,4.10
2017-08-08T04:10:49.226Z,4.10
2017-08-08T04:11:49.226Z,3.90
2017-08-08T04:12:49.224Z,3.60
2017-08-08T04:13:49.227Z,4.30
2017-08-08T04:14:49.233Z,3.50
2017-08-08T04:15:49.232Z,3.70
2017-08-08T04:16:49.235Z,4.30
2017-08-08T04:17:49.233Z,3.70
2017-08-08T04:18:49.230Z,3.90
2017-08-08T04:19:49.234Z,3.40
2017-08-08T04:20:49.234Z,4.80
2017-08-08T04:21:49.236Z,4.40
2017-08-08T04:22:49.241Z,3.50
2017-08-08T04:23:49.240Z,3.80
2017-08-08T04:24:49.245Z,3.40
2017-08-08T04:25:49.242Z,4.30
2017-08-08T04:26:49.245Z,3.40
2017-08-08T04:27:49.246Z,4.80
2017-08-08T04:28:49.249Z,4.50
2017-08-08T04:29:49.247Z,3.20
2017-08-08T04:30:49.244Z,3.80
2017-08-08T04:31:49.248Z,5.70
2017-08-08T04:32:49.247Z,4.30
2017-08-08T04:33:49.250Z,4.00
2017-08-08T04:34:49.252Z,3.50
2017-08-08T04:35:49.251Z,3.40
2017-08-08T04:36:49.254Z,3.70
2017-08-08T04:37:49.252Z,3.90
2017-08-08T04:38:49.257Z,3.50
2017-08-08T04:39:49.263Z,4.90
2017-08-08T04:40:49.260Z,3.30
2017-08-08T04:41:49.263Z,3.30
2017-08-08T04:42:49.263Z,3.60
2017-08-08T04:43:49.265Z,4.20
2017-08-08T04:44:49.265Z,5.00
2017-08-08T04:45:49.267Z,3.80
2017-08-08T04:46:49.265Z,3.80
2017-08-08T04:47:49.264Z,4.80
2017-08-08T04:48:49.267Z,3.00
2017-08-08T04:49:49.267Z,3.70
2017-08-08T04:50:49.266Z,5.80
2017-08-08T04:51:49.271Z,3.40
2017-08-08T04:52:49.269Z,3.40
2017-08-08T04:53:49.273Z,3.80
2017-08-08T04:54:49.278Z,4.50
2017-08-08T04:55:49.276Z,4.70
2017-08-08T04:56:49.280Z,3.60
2017-08-08T04:57:49.282Z,3.70
2017-08-08T04:58:49.281Z,3.50
2017-08-08T04:59:49.281Z,3.70
2017-08-08T05:00:49.284Z,4.40
2017-08-08T05:01:49.283Z,4.50
2017-08-08T05:02:49.280Z,5.40
2017-08-08T05:03:49.282Z,3.40
2017-08-08T05:04:49.282Z,3.50
2017-08-08T05:05:49.285Z,3.50
2017-08-08T05:06:49.286Z,4.80
2017-08-08T05:07:49.285Z,3.90
2017-08-08T05:08:49.289Z,3.90
2017-08-08T05:09:49.288Z,4.50
2017-08-08T05:10:49.293Z,3.70
2017-08-08T05:11:49.296Z,4.20
2017-08-08T05:12:49.295Z,3.50
2017-08-08T05:13:49.298Z,3.30
2017-08-08T05:14:49.299Z,3.40
2017-08-08T05:15:49.302Z,4.40
2017-08-08T05:16:49.299Z,3.70
2017-08-08T05:17:49.303Z,3.30
2017-08-08T05:18:49.299Z,4.60
2017-08-08T05:19:49.298Z,3.60
2017-08-08T05:20:49.302Z,3.40
2017-08-08T05:21:49.300Z,3.90
2017-08-08T05:22:49.303Z,3.50
2017-08-08T05:23:49.303Z,3.00
2017-08-08T05:24:49.306Z,3.70
2017-08-08T05:25:49.304Z,3.40
2017-08-08T05:26:49.310Z,3.60
2017-08-08T05:27:49.314Z,4.20
2017-08-08T05:28:49.313Z,2.90
2017-08-08T05:29:49.315Z,3.20
2017-08-08T05:30:49.318Z,3.30
2017-08-08T05:31:49.318Z,3.00
2017-08-08T05:32:49.319Z,3.60
2017-08-08T05:33:49.320Z,3.60
2017-08-08T05:34:49.317Z,3.00
2017-08-08T05:35:49.316Z,3.50
2017-08-08T05:36:49.320Z,3.40
2017-08-08T05:37:49.318Z,3.30
2017-08-08T05:38:49.320Z,3.00
2017-08-08T05:39:49.327Z,3.00
2017-08-08T05:40:49.322Z,4.30
2017-08-08T05:41:49.325Z,4.50
2017-08-08T05:42:49.331Z,3.30
2017-08-08T05:43:49.330Z,4.80
2017-08-08T05:44:49.333Z,3.30
2017-08-08T05:45:49.332Z,3.00
2017-08-08T05:46:49.335Z,3.60
2017-08-08T05:47:49.334Z,2.90
2017-08-08T05:48:49.337Z,4.30
2017-08-08T05:49:49.336Z,3.30
2017-08-08T05:50:49.333Z,3.60
2017-08-08T05:51:49.336Z,3.00
2017-08-08T05:52:49.336Z,3.10
2017-08-08T05:53:49.339Z,3.40
2017-08-08T05:54:49.339Z,3.20
2017-08-08T05:55:49.338Z,3.00
2017-08-08T05:56:49.342Z,4.50
2017-08-08T05:57:49.341Z,3.40
2017-08-08T05:58:49.346Z,3.70
2017-08-08T05:59:49.349Z,3.40
2017-08-08T06:00:49.348Z,3.20
2017-08-08T06:01:49.352Z,3.60
2017-08-08T06:02:49.350Z,2.90
2017-08-08T06:03:49.354Z,3.40
2017-08-08T06:04:49.353Z,3.40
2017-08-08T06:05:49.356Z,3.30
2017-08-08T06:06:49.353Z,3.30
2017-08-08T06:07:49.354Z,3.30
2017-08-08T06:08:49.356Z,3.70
2017-08-08T06:09:49.356Z,3.50
2017-08-08T06:10:49.355Z,4.40
2017-08-08T06:11:49.361Z,3.40
2017-08-08T06:12:49.359Z,3.00
2017-08-08T06:13:49.361Z,3.50
2017-08-08T06:14:49.367Z,3.80
2017-08-08T06:15:49.816Z,2.90
2017-08-08T06:16:49.369Z,3.00
2017-08-08T06:17:49.368Z,3.40
2017-08-08T06:18:49.370Z,3.60
2017-08-08T06:19:49.370Z,3.80
2017-08-08T06:20:49.375Z,3.50
2017-08-08T06:21:49.372Z,3.20
2017-08-08T06:22:49.369Z,3.30
2017-08-08T06:23:49.372Z,3.00
2017-08-08T06:24:49.372Z,3.00
2017-08-08T06:25:49.374Z,3.20
2017-08-08T06:26:49.380Z,3.20
2017-08-08T06:27:49.379Z,3.20
2017-08-08T06:28:49.383Z,3.20
2017-08-08T06:29:49.382Z,3.20
2017-08-08T06:30:49.378Z,4.00
2017-08-08T06:31:49.382Z,3.10
2017-08-08T06:32:49.381Z,3.30
2017-08-08T06:33:49.384Z,3.20
2017-08-08T06:34:49.383Z,3.70
2017-08-08T06:35:49.385Z,3.10
2017-08-08T06:36:49.537Z,2.80
2017-08-08T06:37:49.390Z,3.50
2017-08-08T06:38:49.395Z,3.30
2017-08-08T06:39:49.394Z,3.70
2017-08-08T06:40:49.402Z,3.20
2017-08-08T06:41:49.396Z,3.40
2017-08-08T06:42:49.397Z,3.20
2017-08-08T06:43:49.402Z,3.80
2017-08-08T06:44:49.401Z,3.10
2017-08-08T06:45:49.404Z,3.30
2017-08-08T06:46:49.402Z,3.40
2017-08-08T06:47:49.401Z,3.30
2017-08-08T06:48:49.404Z,3.10
2017-08-08T06:49:49.403Z,3.40
2017-08-08T06:50:49.407Z,3.50
2017-08-08T06:51:49.406Z,3.20
2017-08-08T06:52:49.409Z,3.40
2017-08-08T06:53:49.408Z,3.00
2017-08-08T06:54:49.414Z,3.20
2017-08-08T06:55:49.417Z,3.30
2017-08-08T06:56:49.417Z,3.30
2017-08-08T06:57:49.419Z,4.20
2017-08-08T06:58:49.424Z,3.10
2017-08-08T06:59:49.421Z,3.50
2017-08-08T07:00:49.424Z,3.60
2017-08-08T07:01:49.423Z,3.80
2017-08-08T07:02:49.420Z,3.00
2017-08-08T07:03:49.425Z,2.90
2017-08-08T07:04:49.424Z,2.90
2017-08-08T07:05:49.427Z,3.10
2017-08-08T07:06:49.426Z,4.10
2017-08-08T07:07:49.430Z,3.30
2017-08-08T07:08:49.430Z,3.10
2017-08-08T07:09:49.436Z,2.90
2017-08-08T07:10:49.438Z,3.30
2017-08-08T07:11:49.437Z,3.20
2017-08-08T07:12:49.441Z,3.20
2017-08-08T07:13:49.440Z,3.50
2017-08-08T07:14:49.441Z,2.70
2017-08-08T07:15:49.445Z,3.20
2017-08-08T07:16:49.444Z,3.10
2017-08-08T07:17:49.447Z,3.60
2017-08-08T07:18:49.445Z,3.50
2017-08-08T07:19:49.444Z,3.40
2017-08-08T07:20:49.448Z,2.90
2017-08-08T07:21:49.446Z,3.20
2017-08-08T07:22:49.450Z,3.20
2017-08-08T07:23:49.450Z,3.10
2017-08-08T07:24:49.455Z,3.70
2017-08-08T07:25:49.453Z,5.20
2017-08-08T07:26:49.458Z,3.10
2017-08-08T07:27:49.461Z,3.30
2017-08-08T07:28:49.462Z,4.90
2017-08-08T07:29:49.464Z,3.70
2017-08-08T07:30:49.461Z,3.00
2017-08-08T07:31:49.461Z,4.50
2017-08-08T07:32:49.465Z,3.20
2017-08-08T07:33:49.467Z,3.20
2017-08-08T07:34:49.470Z,3.80
2017-08-08T07:35:49.473Z,3.10
2017-08-08T07:36:49.473Z,4.30
2017-08-08T07:37:49.476Z,3.20
2017-08-08T07:38:49.476Z,5.20
2017-08-08T07:39:49.480Z,3.40
2017-08-08T07:40:49.480Z,3.10
2017-08-08T07:41:49.484Z,3.30
2017-08-08T07:42:49.482Z,3.20
2017-08-08T07:43:49.480Z,2.80
2017-08-08T07:44:49.484Z,4.40
2017-08-08T07:45:49.483Z,2.90
2017-08-08T07:46:49.486Z,2.90
2017-08-08T07:47:49.490Z,3.90
2017-08-08T07:48:49.489Z,2.80
2017-08-08T07:49:49.492Z,2.80
2017-08-08T07:50:49.499Z,3.40
2017-08-08T07:51:49.498Z,4.80
2017-08-08T07:52:49.503Z,8.40
2017-08-08T07:53:49.501Z,9.40
2017-08-08T07:54:49.505Z,13.10
2017-08-08T07:55:49.505Z,9.50
2017-08-08T07:56:49.508Z,7.60
2017-08-08T07:57:49.512Z,9.30
2017-08-08T07:58:49.504Z,7.70
2017-08-08T07:59:49.508Z,8.40
2017-08-08T08:00:49.507Z,10.00
2017-08-08T08:01:49.510Z,7.20
2017-08-08T08:02:49.512Z,6.90
2017-08-08T08:03:49.519Z,13.10
2017-08-08T08:04:49.514Z,8.80
2017-08-08T08:05:49.512Z,11.30
2017-08-08T08:06:49.519Z,9.00
2017-08-08T08:07:49.522Z,9.80
2017-08-08T08:08:49.521Z,12.90
2017-08-08T08:09:49.523Z,8.80
2017-08-08T08:10:49.524Z,10.70
2017-08-08T08:11:49.527Z,12.20
2017-08-08T08:12:49.525Z,11.30
2017-08-08T08:13:49.531Z,9.70
2017-08-08T08:14:49.527Z,15.80
2017-08-08T08:15:49.524Z,12.50
2017-08-08T08:16:49.527Z,8.70
2017-08-08T08:17:49.526Z,14.70
2017-08-08T08:18:49.527Z,13.60
2017-08-08T08:19:49.530Z,11.00
2017-08-08T08:20:49.530Z,12.50
2017-08-08T08:21:49.532Z,11.80
2017-08-08T08:22:49.537Z,11.40
2017-08-08T08:23:49.536Z,9.50
2017-08-08T08:24:49.540Z,8.80
2017-08-08T08:25:49.539Z,7.90
2017-08-08T08:26:49.542Z,12.20
2017-08-08T08:27:49.740Z,7.40
2017-08-08T08:28:49.544Z,11.50
2017-08-08T08:29:49.543Z,17.40
2017-08-08T08:30:49.538Z,20.40
2017-08-08T08:31:49.542Z,12.80
2017-08-08T08:32:49.542Z,15.80
2017-08-08T08:33:49.544Z,14.00
2017-08-08T08:34:49.549Z,7.70
2017-08-08T08:35:49.548Z,12.80
2017-08-08T08:36:49.550Z,10.00
2017-08-08T08:37:49.548Z,7.60
2017-08-08T08:38:49.545Z,9.40
2017-08-08T08:39:49.549Z,9.10
2017-08-08T08:40:49.546Z,6.90
2017-08-08T08:41:49.556Z,7.30
2017-08-08T08:42:50.481Z,7.90
2017-08-08T08:43:49.547Z,6.70
2017-08-08T08:44:49.546Z,10.20
2017-08-08T08:45:49.548Z,5.40
2017-08-08T08:46:49.553Z,9.60
2017-08-08T08:47:49.551Z,11.70
2017-08-08T08:48:49.553Z,6.80
2017-08-08T08:49:49.551Z,10.70
2017-08-08T08:50:49.555Z,7.10
2017-08-08T08:51:49.556Z,13.00
2017-08-08T08:52:49.552Z,10.40
2017-08-08T08:53:49.554Z,8.50
2017-08-08T08:54:49.580Z,8.00
2017-08-08T08:55:49.552Z,7.90
2017-08-08T08:56:49.551Z,8.00
2017-08-08T08:57:49.547Z,7.60
2017-08-08T08:58:49.550Z,5.40
2017-08-08T08:59:49.548Z,7.30
2017-08-08T09:00:49.551Z,12.80
2017-08-08T09:01:49.548Z,5.80
2017-08-08T09:02:49.553Z,6.00
2017-08-08T09:03:49.555Z,5.60
2017-08-08T09:04:49.558Z,6.60
2017-08-08T09:05:49.553Z,9.00
2017-08-08T09:06:49.553Z,10.30
2017-08-08T09:07:49.567Z,6.90
2017-08-08T09:08:49.554Z,10.60
2017-08-08T09:09:49.551Z,9.00
2017-08-08T09:10:49.546Z,10.50
2017-08-08T09:11:49.548Z,6.90
2017-08-08T09:12:49.546Z,9.40
2017-08-08T09:13:49.546Z,6.10
2017-08-08T09:14:49.545Z,6.70
2017-08-08T09:15:49.552Z,8.00
2017-08-08T09:16:49.545Z,7.10
2017-08-08T09:17:49.548Z,7.20
2017-08-08T09:18:49.550Z,6.50
2017-08-08T09:19:49.547Z,8.60
2017-08-08T09:20:49.549Z,8.10
2017-08-08T09:21:49.546Z,9.00
2017-08-08T09:22:49.545Z,8.60
2017-08-08T09:23:49.547Z,6.20
2017-08-08T09:24:49.545Z,8.70
2017-08-08T09:25:49.546Z,5.50
2017-08-08T09:26:49.540Z,5.90
2017-08-08T09:27:49.538Z,7.50
2017-08-08T09:28:49.546Z,6.90
2017-08-08T09:29:49.537Z,5.70
2017-08-08T09:30:49.539Z,7.90
2017-08-08T09:31:49.536Z,5.90
2017-08-08T09:32:49.537Z,8.00
2017-08-08T09:33:49.533Z,5.20
2017-08-08T09:34:49.535Z,10.50
2017-08-08T09:35:49.538Z,5.90
2017-08-08T09:36:49.532Z,6.60
2017-08-08T09:37:49.531Z,7.20
2017-08-08T09:38:49.530Z,10.20
2017-08-08T09:39:49.526Z,8.40
2017-08-08T09:40:49.523Z,7.60
2017-08-08T09:41:49.518Z,5.40
2017-08-08T09:42:49.513Z,12.60
2017-08-08T09:43:49.512Z,12.00
2017-08-08T09:44:49.507Z,9.20
2017-08-08T09:45:49.505Z,8.10
2017-08-08T09:46:49.499Z,5.90
2017-08-08T09:47:49.498Z,5.60
2017-08-08T09:48:49.492Z,5.60
2017-08-08T09:49:49.490Z,7.70
2017-08-08T09:50:49.490Z,5.10
2017-08-08T09:51:49.484Z,6.50
2017-08-08T09:52:49.484Z,9.80
2017-08-08T09:53:49.482Z,5.90
2017-08-08T09:54:49.474Z,9.60
2017-08-08T09:55:49.473Z,7.30
2017-08-08T09:56:49.468Z,6.00
2017-08-08T09:57:49.466Z,7.40
2017-08-08T09:58:49.458Z,6.20
2017-08-08T09:59:49.453Z,8.10
2017-08-08T10:00:49.454Z,4.60
2017-08-08T10:01:49.449Z,8.30
2017-08-08T10:02:49.448Z,7.20
2017-08-08T10:03:49.443Z,6.00
2017-08-08T10:04:49.443Z,7.00
2017-08-08T10:05:49.437Z,5.50
2017-08-08T10:06:49.439Z,5.90
2017-08-08T10:07:49.440Z,4.80
2017-08-08T10:08:49.436Z,6.10
2017-08-08T10:09:49.435Z,5.90
2017-08-08T10:10:49.433Z,4.70
2017-08-08T10:11:49.429Z,5.60
2017-08-08T10:12:49.429Z,7.20
2017-08-08T10:13:49.424Z,5.50
2017-08-08T10:14:49.419Z,4.30
2017-08-08T10:15:49.423Z,6.40
2017-08-08T10:16:49.415Z,6.80
2017-08-08T10:17:49.414Z,4.30
2017-08-08T10:18:49.410Z,4.60
2017-08-08T10:19:49.409Z,4.80
2017-08-08T10:20:49.405Z,6.80
2017-08-08T10:21:49.404Z,5.60
2017-08-08T10:22:49.405Z,3.90
2017-08-08T10:23:49.403Z,4.60
2017-08-08T10:24:49.402Z,9.10
2017-08-08T10:25:49.396Z,4.20
2017-08-08T10:26:49.394Z,5.10
2017-08-08T10:27:49.392Z,4.40
2017-08-08T10:28:49.389Z,6.80
2017-08-08T10:29:49.387Z,5.70
2017-08-08T10:30:49.380Z,6.90
2017-08-08T10:31:49.378Z,7.60
2017-08-08T10:32:49.376Z,6.90
2017-08-08T10:33:49.371Z,7.90
2017-08-08T10:34:49.371Z,16.80
2017-08-08T10:35:49.368Z,20.90
2017-08-08T10:36:49.368Z,11.90
2017-08-08T10:37:49.365Z,14.30
2017-08-08T10:38:49.367Z,13.30
2017-08-08T10:39:49.366Z,9.70
2017-08-08T10:40:49.362Z,10.00
2017-08-08T10:41:49.365Z,11.00
2017-08-08T10:42:49.356Z,10.70
2017-08-08T10:43:49.353Z,8.60
2017-08-08T10:44:49.354Z,7.90
2017-08-08T10:45:49.349Z,8.30
2017-08-08T10:46:49.352Z,8.00
2017-08-08T10:47:49.353Z,8.80
2017-08-08T10:48:49.344Z,6.90
2017-08-08T10:49:49.342Z,8.60
2017-08-08T10:50:49.338Z,8.10
2017-08-08T10:51:49.337Z,6.80
2017-08-08T10:52:49.332Z,6.80
2017-08-08T10:53:49.331Z,6.00
2017-08-08T10:54:49.325Z,8.60
2017-08-08T10:55:49.317Z,9.90
2017-08-08T10:56:49.316Z,5.70
2017-08-08T10:57:49.310Z,7.60
2017-08-08T10:58:49.306Z,8.00
2017-08-08T10:59:49.304Z,7.60
2017-08-08T11:00:49.298Z,9.80
2017-08-08T11:01:49.296Z,8.40
2017-08-08T11:02:49.298Z,7.10
2017-08-08T11:03:49.294Z,8.80
2017-08-08T11:04:49.294Z,7.30
2017-08-08T11:05:49.289Z,9.20
2017-08-08T11:06:49.290Z,10.90
2017-08-08T11:07:49.287Z,8.00
2017-08-08T11:08:49.289Z,8.10
2017-08-08T11:09:49.286Z,5.50
2017-08-08T11:10:49.280Z,6.30
2017-08-08T11:11:49.281Z,9.40
2017-08-08T11:12:49.279Z,8.50
2017-08-08T11:13:49.286Z,9.40
2017-08-08T11:14:49.281Z,6.20
2017-08-08T11:15:49.279Z,9.20
2017-08-08T11:16:49.282Z,8.60
2017-08-08T11:17:49.278Z,9.60
2017-08-08T11:18:49.284Z,6.40
2017-08-08T11:19:49.286Z,7.50
2017-08-08T11:20:49.284Z,7.60
2017-08-08T11:21:49.286Z,9.30
2017-08-08T11:22:49.285Z,7.40
2017-08-08T11:23:49.290Z,7.80
2017-08-08T11:24:49.287Z,11.90
2017-08-08T11:25:49.290Z,9.10
2017-08-08T11:26:49.286Z,8.60
2017-08-08T11:27:49.287Z,8.50
2017-08-08T11:28:49.288Z,6.40
2017-08-08T11:29:49.286Z,7.20
2017-08-08T11:30:49.288Z,5.90
2017-08-08T11:31:49.291Z,6.40
2017-08-08T11:32:49.290Z,7.70
2017-08-08T11:33:49.293Z,6.70
2017-08-08T11:34:49.298Z,6.10
2017-08-08T11:35:49.296Z,8.10
2017-08-08T11:36:49.300Z,7.90
2017-08-08T11:37:49.303Z,8.10
2017-08-08T11:38:49.302Z,5.70
2017-08-08T11:39:49.302Z,6.80
2017-08-08T11:40:49.305Z,8.20
2017-08-08T11:41:49.304Z,6.90
2017-08-08T11:42:49.301Z,7.20
2017-08-08T11:43:49.304Z,7.10
2017-08-08T11:44:49.305Z,7.80
2017-08-08T11:45:49.307Z,7.40
2017-08-08T11:46:49.313Z,7.30
2017-08-08T11:47:49.312Z,7.60
2017-08-08T11:48:49.318Z,7.90
2017-08-08T11:49:49.315Z,7.30
2017-08-08T11:50:49.313Z,8.50
2017-08-08T11:51:49.316Z,6.90
2017-08-08T11:52:49.317Z,9.40
2017-08-08T11:53:49.321Z,7.50
2017-08-08T11:54:49.319Z,8.60
2017-08-08T11:55:49.323Z,7.60
2017-08-08T11:56:49.323Z,6.20
2017-08-08T11:57:49.327Z,7.80
2017-08-08T11:58:49.333Z,8.30
2017-08-08T11:59:49.332Z,8.10
2017-08-08T12:00:49.337Z,9.00
2017-08-08T12:01:49.337Z,7.70
2017-08-08T12:02:49.338Z,8.10
2017-08-08T12:03:49.342Z,9.00
2017-08-08T12:04:49.342Z,6.40
2017-08-08T12:05:49.346Z,6.40
2017-08-08T12:06:49.344Z,5.40
2017-08-08T12:07:49.344Z,9.40
2017-08-08T12:08:49.353Z,8.30
2017-08-08T12:09:49.346Z,8.30
2017-08-08T12:10:49.351Z,5.30
2017-08-08T12:11:49.353Z,7.70
2017-08-08T12:12:49.355Z,7.00
2017-08-08T12:13:49.353Z,5.90
2017-08-08T12:14:49.360Z,7.50
2017-08-08T12:15:49.364Z,5.60
2017-08-08T12:16:49.365Z,6.00
2017-08-08T12:17:49.369Z,5.40
2017-08-08T12:18:49.370Z,6.10
2017-08-08T12:19:49.370Z,6.20
2017-08-08T12:20:49.374Z,6.80
2017-08-08T12:21:49.374Z,6.80
2017-08-08T12:22:49.372Z,5.40
2017-08-08T12:23:49.376Z,6.70
2017-08-08T12:24:49.376Z,4.70
2017-08-08T12:25:49.379Z,7.00
2017-08-08T12:26:49.380Z,6.30
2017-08-08T12:27:49.383Z,5.10
2017-08-08T12:28:49.383Z,7.10
2017-08-08T12:29:49.387Z,6.10
2017-08-08T12:30:49.393Z,5.90
2017-08-08T12:31:49.392Z,6.30
2017-08-08T12:32:49.397Z,6.50
2017-08-08T12:33:49.396Z,5.30
2017-08-08T12:34:49.398Z,4.30
2017-08-08T12:35:49.402Z,7.40
2017-08-08T12:36:49.403Z,5.10
2017-08-08T12:37:49.407Z,6.20
2017-08-08T12:38:49.402Z,5.80
2017-08-08T12:39:49.404Z,5.60
2017-08-08T12:40:49.407Z,6.20
2017-08-08T12:41:49.412Z,4.60
2017-08-08T12:42:49.410Z,4.80
2017-08-08T12:43:49.411Z,6.10
2017-08-08T12:44:49.414Z,8.90
2017-08-08T12:45:49.414Z,6.70
2017-08-08T12:46:49.419Z,4.60
2017-08-08T12:47:49.423Z,4.70
2017-08-08T12:48:49.424Z,5.30
2017-08-08T12:49:49.427Z,5.10
2017-08-08T12:50:49.424Z,5.50
2017-08-08T12:51:49.432Z,6.60
2017-08-08T12:52:49.429Z,6.00
2017-08-08T12:53:49.427Z,5.10
2017-08-08T12:54:49.434Z,4.20
2017-08-08T12:55:49.439Z,5.10
2017-08-08T12:56:49.437Z,6.10
2017-08-08T12:57:49.440Z,5.10
2017-08-08T12:58:49.441Z,4.50
2017-08-08T12:59:49.445Z,4.20
2017-08-08T13:00:49.445Z,4.50
2017-08-08T13:01:49.448Z,5.90
2017-08-08T13:02:49.445Z,5.10
2017-08-08T13:03:49.446Z,4.70
2017-08-08T13:04:49.449Z,3.90
2017-08-08T13:05:49.449Z,4.80
2017-08-08T13:06:49.450Z,7.30
2017-08-08T13:07:49.455Z,8.40
2017-08-08T13:08:49.456Z,4.60
2017-08-08T13:09:49.458Z,5.60
2017-08-08T13:10:49.464Z,4.60
2017-08-08T13:11:49.473Z,5.80
2017-08-08T13:12:49.468Z,5.70
2017-08-08T13:13:49.468Z,5.50
2017-08-08T13:14:49.770Z,6.10
2017-08-08T13:15:49.471Z,6.00
2017-08-08T13:16:49.477Z,6.20